Time;durP1;ratioP1;P1;durP2;ratioP2;P2;SDS_P1;SDS_P2;PMS_P1;PMS_P2;Temp;Humidity;BMP_temperature;BMP_pressure;BME280_temperature;BME280_humidity;BME280_pressure;Samples;Min_cycle;Max_cycle;Signal;HPM_P1;HPM_P2
2021/06/17 00:00:16;;;;;;;11.00;10.00;;;22.90;99.90;;;;;;4977954;28;20205;-85
2021/06/17 00:02:44;;;;;;;11.43;10.32;;;22.90;99.90;;;;;;4963290;28;20306;-84
2021/06/17 00:05:12;;;;;;;11.60;10.60;;;22.90;99.90;;;;;;4932332;29;20306;-84
2021/06/17 00:07:39;;;;;;;11.18;10.20;;;22.80;99.90;;;;;;4946513;29;20199;-85
2021/06/17 00:10:11;;;;;;;11.43;10.40;;;22.80;99.90;;;;;;4964852;29;20670;-85
2021/06/17 00:12:38;;;;;;;10.85;10.00;;;22.70;99.90;;;;;;4964353;29;20231;-85
2021/06/17 00:15:12;;;;;;;12.13;11.02;;;22.70;99.90;;;;;;4947286;29;20628;-85
2021/06/17 00:17:40;;;;;;;12.60;11.40;;;22.60;99.90;;;;;;4964841;29;20210;-85
2021/06/17 00:20:08;;;;;;;10.40;9.57;;;22.50;99.90;;;;;;4945270;29;20207;-86
2021/06/17 00:22:35;;;;;;;12.43;11.23;;;22.50;99.90;;;;;;4929990;29;20226;-85
2021/06/17 00:25:02;;;;;;;10.55;9.50;;;22.50;99.90;;;;;;4946779;29;20254;-85
2021/06/17 00:27:29;;;;;;;12.43;10.25;;;22.50;99.90;;;;;;4945542;29;20291;-85
2021/06/17 00:29:56;;;;;;;12.38;11.38;;;22.60;99.90;;;;;;4945981;29;20692;-85
2021/06/17 00:32:24;;;;;;;10.77;9.77;;;22.60;99.90;;;;;;4946331;29;20218;-85
2021/06/17 00:34:51;;;;;;;10.98;9.95;;;22.50;99.90;;;;;;4961538;28;20703;-85
2021/06/17 00:37:18;;;;;;;12.82;11.73;;;22.50;99.90;;;;;;4965708;28;20237;-85
2021/06/17 00:39:46;;;;;;;11.93;10.82;;;22.50;99.90;;;;;;4965139;28;20202;-85
2021/06/17 00:42:13;;;;;;;11.02;10.02;;;22.50;99.90;;;;;;4981778;28;20222;-85
2021/06/17 00:44:40;;;;;;;12.18;11.00;;;22.40;99.90;;;;;;4964665;28;20245;-85
2021/06/17 00:47:07;;;;;;;10.18;9.27;;;22.40;99.90;;;;;;4980838;28;20303;-85
2021/06/17 00:49:35;;;;;;;11.30;10.20;;;22.30;99.90;;;;;;4982024;28;20542;-84
2021/06/17 00:52:06;;;;;;;9.93;9.13;;;22.40;99.90;;;;;;4964650;28;20297;-85
2021/06/17 00:54:34;;;;;;;9.80;9.02;;;22.20;99.90;;;;;;4965749;28;20226;-85
2021/06/17 00:57:03;;;;;;;10.43;9.55;;;22.20;99.90;;;;;;4949718;28;20229;-82
2021/06/17 00:59:31;;;;;;;11.32;10.13;;;22.20;99.90;;;;;;4965796;28;20236;-82
2021/06/17 01:01:58;;;;;;;10.35;9.35;;;22.30;99.90;;;;;;4964827;28;20290;-83
2021/06/17 01:04:25;;;;;;;10.77;9.77;;;22.20;99.90;;;;;;4982201;28;20385;-82
2021/06/17 01:06:55;;;;;;;10.55;9.27;;;22.10;99.90;;;;;;4964249;28;20647;-82
2021/06/17 01:09:38;;;;;;;9.35;8.65;;;22.10;99.90;;;;;;4982041;28;20210;-83
2021/06/17 01:12:12;;;;;;;10.70;9.80;;;22.10;99.90;;;;;;4964338;28;20260;-83
2021/06/17 01:14:46;;;;;;;11.38;9.43;;;22.10;99.90;;;;;;4982317;28;20318;-83
2021/06/17 01:17:17;;;;;;;10.93;9.93;;;22.00;99.90;;;;;;4965704;28;20209;-84
2021/06/17 01:19:54;;;;;;;10.18;9.27;;;22.00;99.90;;;;;;4948718;28;20202;-83
2021/06/17 01:22:33;;;;;;;11.77;10.70;;;22.00;99.90;;;;;;4982628;28;20228;-83
2021/06/17 01:25:11;;;;;;;11.55;10.55;;;22.00;99.90;;;;;;4965941;28;20234;-83
2021/06/17 01:28:10;;;;;;;12.85;10.30;;;22.00;99.90;;;;;;4981929;28;20214;-84
2021/06/17 01:30:48;;;;;;;11.10;9.93;;;22.00;99.90;;;;;;4948940;28;20198;-83
2021/06/17 01:33:16;;;;;;;12.25;11.15;;;21.90;99.90;;;;;;4982088;28;20279;-83
2021/06/17 01:35:48;;;;;;;13.98;9.82;;;21.90;99.90;;;;;;4980099;28;20264;-83
2021/06/17 01:38:18;;;;;;;11.13;10.05;;;21.90;99.90;;;;;;4963118;28;20689;-83
2021/06/17 01:40:47;;;;;;;11.13;10.25;;;21.80;99.90;;;;;;4963912;28;20681;-83
2021/06/17 01:43:16;;;;;;;12.07;10.95;;;21.70;99.90;;;;;;4947541;28;20294;-83
2021/06/17 01:45:46;;;;;;;10.63;9.73;;;21.70;99.90;;;;;;4963030;28;20225;-84
2021/06/17 01:48:13;;;;;;;11.73;10.60;;;21.70;99.90;;;;;;4968996;28;20194;-82
2021/06/17 01:50:43;;;;;;;10.80;9.90;;;21.80;99.90;;;;;;4991080;28;20193;-83
2021/06/17 01:53:12;;;;;;;10.45;9.60;;;21.80;99.90;;;;;;4994637;28;20210;-84
2021/06/17 01:55:41;;;;;;;10.02;9.02;;;21.80;99.90;;;;;;4966905;28;20205;-84
2021/06/17 01:58:11;;;;;;;10.82;9.95;;;21.80;99.90;;;;;;4949920;28;20209;-83
2021/06/17 02:00:40;;;;;;;12.50;10.57;;;21.70;99.90;;;;;;4948459;28;20201;-83
2021/06/17 02:03:09;;;;;;;11.27;9.82;;;21.60;99.90;;;;;;4964913;28;20304;-83
2021/06/17 02:05:37;;;;;;;11.90;10.57;;;21.50;99.90;;;;;;4964249;28;20294;-83
2021/06/17 02:08:07;;;;;;;12.90;11.80;;;21.40;99.90;;;;;;4965167;28;20202;-84
2021/06/17 02:10:36;;;;;;;12.38;11.18;;;21.50;99.90;;;;;;4982168;28;20229;-83
2021/06/17 02:13:04;;;;;;;11.88;10.68;;;21.50;99.90;;;;;;4964236;28;20293;-83
2021/06/17 02:15:32;;;;;;;9.75;9.00;;;21.40;99.90;;;;;;4947933;28;20288;-84
2021/06/17 02:18:00;;;;;;;9.45;8.52;;;21.40;99.90;;;;;;4980670;28;20202;-83
2021/06/17 02:20:29;;;;;;;10.95;9.93;;;21.40;99.90;;;;;;4980678;28;20198;-83
2021/06/17 02:23:02;;;;;;;10.63;9.68;;;21.40;99.90;;;;;;4977401;28;20230;-83
2021/06/17 02:25:30;;;;;;;11.13;10.02;;;21.40;99.90;;;;;;4943722;29;20210;-83
2021/06/17 02:28:01;;;;;;;11.65;10.65;;;21.40;99.90;;;;;;4962583;28;20327;-83
2021/06/17 02:30:32;;;;;;;10.80;9.75;;;21.30;99.90;;;;;;4983471;28;20189;-84
2021/06/17 02:33:01;;;;;;;10.80;9.80;;;21.30;99.90;;;;;;4983403;28;20267;-83
2021/06/17 02:35:30;;;;;;;11.65;10.55;;;21.20;99.90;;;;;;4983196;28;20252;-83
2021/06/17 02:37:59;;;;;;;12.32;11.18;;;21.20;99.90;;;;;;4985124;28;20224;-83
2021/06/17 02:40:29;;;;;;;12.55;10.57;;;21.10;99.90;;;;;;4975897;28;20615;-83
2021/06/17 02:42:57;;;;;;;13.00;10.73;;;21.10;99.90;;;;;;4959233;29;20226;-84
2021/06/17 02:45:27;;;;;;;11.77;10.55;;;21.10;99.90;;;;;;4967750;28;20576;-84
2021/06/17 02:47:55;;;;;;;10.73;9.75;;;21.10;99.90;;;;;;4948393;29;20294;-83
2021/06/17 02:50:22;;;;;;;11.82;10.52;;;21.00;99.90;;;;;;4942254;29;20214;-84
2021/06/17 02:52:50;;;;;;;10.43;9.52;;;21.00;99.90;;;;;;4951193;28;20226;-83
2021/06/17 02:55:18;;;;;;;14.90;11.75;;;21.10;99.90;;;;;;4966786;28;20242;-84
2021/06/17 02:57:55;;;;;;;10.32;9.23;;;21.00;99.90;;;;;;4950646;29;20199;-84
2021/06/17 03:00:25;;;;;;;11.05;10.05;;;21.00;99.90;;;;;;4965567;28;20202;-79
2021/06/17 03:03:04;;;;;;;11.68;10.10;;;21.00;99.90;;;;;;4983629;28;20214;-79
2021/06/17 03:05:35;;;;;;;11.48;10.48;;;20.90;99.90;;;;;;4986794;28;20197;-80
2021/06/17 03:08:11;;;;;;;11.88;10.65;;;21.00;99.90;;;;;;4959913;29;20285;-80
2021/06/17 03:10:40;;;;;;;20.42;11.07;;;21.00;99.90;;;;;;4968293;28;20209;-80
2021/06/17 03:13:09;;;;;;;13.48;9.13;;;21.00;99.90;;;;;;4950567;29;20242;-80
2021/06/17 03:15:40;;;;;;;16.48;11.60;;;20.90;99.90;;;;;;4968935;29;20226;-80
2021/06/17 03:18:08;;;;;;;17.17;10.85;;;20.90;99.90;;;;;;4966551;28;20209;-80
2021/06/17 03:20:39;;;;;;;12.07;10.98;;;20.90;99.90;;;;;;4967824;28;20467;-80
2021/06/17 03:23:12;;;;;;;12.35;11.15;;;21.00;99.90;;;;;;4967431;29;20317;-80
2021/06/17 03:25:42;;;;;;;12.77;11.48;;;21.00;99.90;;;;;;4951059;29;20206;-79
2021/06/17 03:28:12;;;;;;;11.48;10.27;;;21.10;99.90;;;;;;4952486;29;20258;-80
2021/06/17 03:30:44;;;;;;;12.38;11.25;;;21.10;99.90;;;;;;4969944;29;20226;-80
2021/06/17 03:33:12;;;;;;;12.02;10.98;;;21.10;99.90;;;;;;4968343;28;20254;-80
2021/06/17 03:35:41;;;;;;;10.15;9.25;;;21.10;99.90;;;;;;4969424;29;20278;-80
2021/06/17 03:38:11;;;;;;;11.85;10.75;;;21.00;99.90;;;;;;4967400;29;20637;-80
2021/06/17 03:40:39;;;;;;;13.45;11.38;;;21.00;99.90;;;;;;4949965;29;20206;-80
2021/06/17 03:43:08;;;;;;;12.57;11.52;;;21.00;99.90;;;;;;4967939;29;20227;-79
2021/06/17 03:45:37;;;;;;;11.20;9.93;;;21.00;99.90;;;;;;4972032;28;20210;-79
2021/06/17 03:48:07;;;;;;;11.25;9.77;;;21.00;99.90;;;;;;4971181;28;20226;-80
2021/06/17 03:50:35;;;;;;;10.48;9.50;;;21.00;99.90;;;;;;4970366;28;20732;-80
2021/06/17 03:53:03;;;;;;;12.70;11.55;;;21.00;99.90;;;;;;4987900;28;20229;-80
2021/06/17 03:55:35;;;;;;;11.07;10.10;;;21.00;99.90;;;;;;4971790;28;20208;-79
2021/06/17 03:58:02;;;;;;;12.20;11.02;;;21.00;99.90;;;;;;4954931;28;20206;-79
2021/06/17 04:00:31;;;;;;;13.60;9.98;;;21.00;99.90;;;;;;4951930;28;20701;-80
2021/06/17 04:03:00;;;;;;;11.35;10.25;;;21.00;99.90;;;;;;4987625;28;20289;-79
2021/06/17 04:05:27;;;;;;;10.93;10.05;;;21.10;99.90;;;;;;4987113;28;20194;-80
2021/06/17 04:07:58;;;;;;;12.02;10.85;;;21.10;99.90;;;;;;4970233;28;20245;-79
2021/06/17 04:10:26;;;;;;;9.88;9.07;;;21.10;99.90;;;;;;4970553;28;20206;-79
2021/06/17 04:12:58;;;;;;;13.30;12.00;;;21.20;99.90;;;;;;4970990;28;20222;-79
2021/06/17 04:15:27;;;;;;;14.38;10.35;;;21.20;99.90;;;;;;4989919;28;20202;-78
2021/06/17 04:17:57;;;;;;;10.95;9.95;;;21.20;99.90;;;;;;4955342;28;20238;-79
2021/06/17 04:20:26;;;;;;;11.32;10.25;;;21.20;99.90;;;;;;4955467;28;20226;-79
2021/06/17 04:22:55;;;;;;;12.13;11.00;;;21.30;99.90;;;;;;4971799;28;20293;-79
2021/06/17 04:25:23;;;;;;;11.27;10.27;;;21.40;99.90;;;;;;4973766;28;20217;-79
2021/06/17 04:27:53;;;;;;;15.88;11.45;;;21.40;99.90;;;;;;4935476;29;20219;-79
2021/06/17 04:30:25;;;;;;;10.98;9.98;;;21.50;99.90;;;;;;4967550;28;20199;-80
2021/06/17 04:32:53;;;;;;;12.68;11.15;;;21.40;99.90;;;;;;4948407;28;20219;-79
2021/06/17 04:35:22;;;;;;;11.75;10.70;;;21.30;99.90;;;;;;4948138;29;20207;-79
2021/06/17 04:37:51;;;;;;;12.88;11.70;;;21.30;99.90;;;;;;4965551;28;20230;-80
2021/06/17 04:40:20;;;;;;;13.38;12.07;;;21.30;99.90;;;;;;4976538;28;20210;-79
2021/06/17 04:42:48;;;;;;;12.63;11.00;;;21.40;99.90;;;;;;4968137;28;20238;-79
2021/06/17 04:45:16;;;;;;;11.00;10.00;;;21.30;99.90;;;;;;4985891;28;20206;-79
2021/06/17 04:47:49;;;;;;;12.18;10.85;;;21.40;99.90;;;;;;4952340;28;20222;-80
2021/06/17 04:50:18;;;;;;;11.90;10.63;;;21.50;99.90;;;;;;4967431;28;20261;-80
2021/06/17 04:53:09;;;;;;;12.73;11.43;;;21.70;99.90;;;;;;4968336;28;20630;-79
2021/06/17 04:55:42;;;;;;;11.35;10.27;;;21.70;99.90;;;;;;4968857;28;20206;-80
2021/06/17 04:58:09;;;;;;;11.82;10.68;;;21.70;99.90;;;;;;4985920;28;20265;-80
2021/06/17 05:00:37;;;;;;;12.55;11.35;;;21.90;99.90;;;;;;4953316;28;20434;-79
2021/06/17 05:03:07;;;;;;;14.07;12.65;;;22.00;99.90;;;;;;4965541;28;20585;-80
2021/06/17 05:05:35;;;;;;;12.95;11.07;;;22.00;99.90;;;;;;4982798;28;20257;-80
2021/06/17 05:10:50;;;;;;;12.73;11.63;;;22.10;99.90;;;;;;4983982;28;20285;-80
2021/06/17 05:13:21;;;;;;;13.38;12.15;;;22.10;99.90;;;;;;4968222;28;20226;-79
2021/06/17 05:15:49;;;;;;;13.15;11.73;;;22.20;99.90;;;;;;4985703;28;20267;-79
2021/06/17 05:18:18;;;;;;;12.88;11.52;;;22.20;99.90;;;;;;4966164;28;20277;-80
2021/06/17 05:20:45;;;;;;;12.07;10.98;;;22.40;99.90;;;;;;4933837;29;20199;-79
2021/06/17 05:23:15;;;;;;;14.32;12.85;;;22.30;99.90;;;;;;4953568;28;20234;-79
2021/06/17 05:25:42;;;;;;;14.32;13.02;;;22.50;99.90;;;;;;4965171;28;20203;-79
2021/06/17 05:28:09;;;;;;;14.00;12.65;;;22.50;99.90;;;;;;4964868;28;20229;-80
2021/06/17 05:30:36;;;;;;;15.20;11.70;;;22.70;99.90;;;;;;4965189;28;20203;-80
2021/06/17 05:33:04;;;;;;;13.35;11.90;;;22.70;99.90;;;;;;4948834;29;20242;-80
2021/06/17 05:35:33;;;;;;;12.05;10.82;;;22.90;99.90;;;;;;4972790;28;20228;-80
2021/06/17 05:38:00;;;;;;;15.02;13.50;;;22.80;99.90;;;;;;4980667;28;20218;-80
2021/06/17 05:40:27;;;;;;;12.07;10.98;;;22.90;99.90;;;;;;4950814;28;20202;-80
2021/06/17 05:42:54;;;;;;;15.57;13.70;;;23.00;99.90;;;;;;4983979;28;20221;-79
2021/06/17 05:45:21;;;;;;;13.75;12.45;;;23.10;99.90;;;;;;4983552;28;20202;-80
2021/06/17 05:47:49;;;;;;;14.48;13.10;;;23.20;99.90;;;;;;4963245;28;20641;-79
2021/06/17 05:50:16;;;;;;;13.02;11.88;;;23.30;99.90;;;;;;4965751;28;20205;-79
2021/06/17 05:52:45;;;;;;;17.90;11.98;;;23.40;99.90;;;;;;4944060;28;20245;-79
2021/06/17 05:55:12;;;;;;;13.30;12.10;;;23.40;99.90;;;;;;4959897;28;20206;-79
2021/06/17 05:57:39;;;;;;;16.88;12.20;;;23.50;99.90;;;;;;4979301;28;20206;-78
2021/06/17 06:00:09;;;;;;;13.30;11.98;;;23.50;99.90;;;;;;4963687;28;20202;-79
2021/06/17 06:02:38;;;;;;;12.43;11.30;;;23.70;99.90;;;;;;4985417;28;20217;-80
2021/06/17 06:05:06;;;;;;;13.25;11.23;;;23.90;99.90;;;;;;4983721;28;20205;-80
2021/06/17 06:07:33;;;;;;;12.85;11.15;;;24.00;99.90;;;;;;4982542;28;20712;-80
2021/06/17 06:10:03;;;;;;;12.75;11.45;;;24.20;99.90;;;;;;4967548;28;20198;-79
2021/06/17 06:12:30;;;;;;;11.98;10.77;;;24.20;99.90;;;;;;4964993;28;20672;-80
2021/06/17 06:14:57;;;;;;;13.23;11.80;;;24.30;99.90;;;;;;4965152;28;20680;-80
2021/06/17 06:17:24;;;;;;;13.73;12.45;;;24.30;99.90;;;;;;4984436;28;20676;-80
2021/06/17 06:19:51;;;;;;;12.02;10.93;;;24.40;99.90;;;;;;4956393;29;20266;-81
2021/06/17 06:22:18;;;;;;;13.40;11.80;;;24.50;99.90;;;;;;4965833;28;20285;-79
2021/06/17 06:24:45;;;;;;;12.23;10.85;;;24.40;99.90;;;;;;4963372;28;20234;-80
2021/06/17 06:27:13;;;;;;;11.90;10.70;;;24.50;99.90;;;;;;4946775;29;20633;-80
2021/06/17 06:29:41;;;;;;;13.30;11.68;;;24.70;99.90;;;;;;4981858;28;20202;-81
2021/06/17 06:32:09;;;;;;;13.48;12.02;;;24.90;99.90;;;;;;4955797;29;20213;-81
2021/06/17 06:34:36;;;;;;;11.23;10.27;;;25.10;99.90;;;;;;4965345;28;20720;-80
2021/06/17 06:37:04;;;;;;;12.05;10.82;;;25.20;99.90;;;;;;4962052;29;20226;-81
2021/06/17 06:39:31;;;;;;;20.17;11.35;;;25.30;99.90;;;;;;4964163;29;20311;-80
2021/06/17 06:41:58;;;;;;;13.25;11.57;;;25.40;99.90;;;;;;4964767;28;20206;-81
2021/06/17 06:44:26;;;;;;;11.52;10.45;;;25.60;99.90;;;;;;4963098;28;20238;-81
2021/06/17 06:46:55;;;;;;;12.25;9.75;;;25.50;99.90;;;;;;4965087;28;20211;-81
2021/06/17 06:49:22;;;;;;;11.30;10.35;;;25.50;99.90;;;;;;4959598;28;20198;-84
2021/06/17 06:51:49;;;;;;;11.13;10.02;;;25.60;99.90;;;;;;4971477;28;20206;-83
2021/06/17 06:54:18;;;;;;;11.15;10.20;;;25.70;99.90;;;;;;4959831;28;20293;-81
2021/06/17 06:56:47;;;;;;;12.05;10.23;;;26.10;99.90;;;;;;4957115;28;20201;-83
2021/06/17 06:59:14;;;;;;;11.52;10.38;;;26.20;99.90;;;;;;4956933;28;20199;-83
2021/06/17 07:01:43;;;;;;;11.77;10.68;;;26.00;99.90;;;;;;4957216;28;20203;-83
2021/06/17 07:04:10;;;;;;;11.00;9.75;;;26.00;99.90;;;;;;4954591;29;20227;-82
2021/06/17 07:06:38;;;;;;;11.07;10.00;;;26.20;99.90;;;;;;4957459;28;20234;-83
2021/06/17 07:09:06;;;;;;;12.30;11.27;;;26.30;99.90;;;;;;4957479;28;20227;-82
2021/06/17 07:11:33;;;;;;;10.05;9.07;;;26.40;99.90;;;;;;4957265;28;20199;-82
2021/06/17 07:14:00;;;;;;;11.20;10.10;;;26.50;99.90;;;;;;4957165;28;20622;-83
2021/06/17 07:16:27;;;;;;;10.48;9.27;;;26.70;99.90;;;;;;4950246;28;20481;-83
2021/06/17 07:18:55;;;;;;;10.68;9.57;;;26.70;99.90;;;;;;4961415;29;20218;-83
2021/06/17 07:21:23;;;;;;;11.27;10.27;;;26.60;99.90;;;;;;4961114;29;20298;-83
2021/06/17 07:23:51;;;;;;;12.18;9.57;;;26.60;99.90;;;;;;4948364;28;20851;-81
2021/06/17 07:26:22;;;;;;;12.10;10.73;;;26.90;99.90;;;;;;4961234;28;20203;-83
2021/06/17 07:28:49;;;;;;;10.52;9.52;;;27.10;99.90;;;;;;4952549;28;20226;-83
2021/06/17 07:31:17;;;;;;;11.90;9.88;;;27.20;99.90;;;;;;4962232;28;20246;-83
2021/06/17 07:33:44;;;;;;;11.43;10.15;;;27.20;99.90;;;;;;4977896;28;20289;-83
2021/06/17 07:36:14;;;;;;;12.65;11.55;;;27.30;99.90;;;;;;4983391;28;20202;-82
2021/06/17 07:38:41;;;;;;;10.98;9.52;;;27.60;99.90;;;;;;4983367;28;20221;-81
2021/06/17 07:41:09;;;;;;;10.68;9.65;;;27.40;99.90;;;;;;4964598;28;20662;-83
2021/06/17 07:43:36;;;;;;;12.18;10.98;;;27.50;99.90;;;;;;4964639;28;20633;-83
2021/06/17 07:46:04;;;;;;;14.32;9.20;;;27.70;99.90;;;;;;4964699;28;20618;-82
2021/06/17 07:48:32;;;;;;;10.35;9.02;;;27.90;99.90;;;;;;4962508;29;20301;-82
2021/06/17 07:51:00;;;;;;;9.18;8.38;;;28.00;99.90;;;;;;4963222;29;20210;-83
2021/06/17 07:53:28;;;;;;;9.63;8.23;;;27.70;99.90;;;;;;4965671;29;20291;-82
2021/06/17 07:55:55;;;;;;;8.85;7.95;;;27.70;99.90;;;;;;4972409;28;20194;-84
2021/06/17 07:58:22;;;;;;;10.32;8.30;;;27.80;99.90;;;;;;4986484;28;20194;-83
2021/06/17 08:00:49;;;;;;;8.82;8.02;;;27.60;99.90;;;;;;4969702;28;20209;-84
2021/06/17 08:03:16;;;;;;;8.80;8.10;;;27.70;99.90;;;;;;4971118;28;20378;-84
2021/06/17 08:05:43;;;;;;;8.38;7.57;;;27.90;99.90;;;;;;4956502;28;20331;-84
2021/06/17 08:08:10;;;;;;;8.88;7.93;;;28.00;99.90;;;;;;4966289;28;20214;-85
2021/06/17 08:10:40;;;;;;;9.65;8.30;;;28.10;99.90;;;;;;4985441;28;20201;-84
2021/06/17 08:13:07;;;;;;;8.68;7.53;;;28.00;99.90;;;;;;4972348;28;20229;-86
2021/06/17 08:15:34;;;;;;;8.35;7.55;;;27.90;99.90;;;;;;4961778;28;20227;-82
2021/06/17 08:18:01;;;;;;;8.70;7.15;;;27.80;99.90;;;;;;4972072;28;20199;-83
2021/06/17 08:20:28;;;;;;;8.00;6.88;;;27.80;99.90;;;;;;4972714;28;20233;-83
2021/06/17 08:23:06;;;;;;;12.32;6.55;;;28.10;99.90;;;;;;4981727;28;20308;-80
2021/06/17 08:25:33;;;;;;;8.10;7.30;;;28.00;99.90;;;;;;4936761;28;20219;-39
2021/06/17 08:28:04;;;;;;;8.38;7.57;;;28.30;99.90;;;;;;4935332;29;20220;-39
2021/06/17 08:30:33;;;;;;;10.30;8.45;;;28.70;99.90;;;;;;4935084;29;20243;-39
2021/06/17 08:33:00;;;;;;;8.48;7.70;;;28.90;99.90;;;;;;4937259;29;20294;-38
2021/06/17 08:35:27;;;;;;;9.10;7.35;;;29.00;99.90;;;;;;4934617;29;20262;-38
2021/06/17 08:37:55;;;;;;;8.65;7.85;;;29.00;99.90;;;;;;4942968;29;20212;-40
2021/06/17 08:40:25;;;;;;;11.15;8.55;;;29.30;99.90;;;;;;4938489;29;20219;-38
2021/06/17 08:42:52;;;;;;;9.88;8.57;;;29.40;99.90;;;;;;4934698;29;20673;-38
2021/06/17 08:45:21;;;;;;;8.35;7.55;;;29.10;99.90;;;;;;4934905;29;20290;-39
2021/06/17 08:47:48;;;;;;;8.88;7.57;;;29.00;99.90;;;;;;4934724;29;20319;-39
2021/06/17 08:50:16;;;;;;;8.55;7.55;;;29.20;99.90;;;;;;4934397;29;20792;-38
2021/06/17 08:52:44;;;;;;;7.85;7.18;;;29.40;99.90;;;;;;4934627;29;20571;-38
2021/06/17 08:55:18;;;;;;;8.80;7.38;;;29.40;99.90;;;;;;4934747;29;20681;-41
2021/06/17 08:57:47;;;;;;;7.30;6.60;;;29.40;99.90;;;;;;4944383;29;20423;-40
2021/06/17 09:00:35;;;;;;;7.90;7.18;;;29.30;99.90;;;;;;4953667;28;20720;-38
2021/06/17 09:03:05;;;;;;;6.90;5.95;;;29.60;99.90;;;;;;4954622;28;20195;-38
2021/06/17 09:05:34;;;;;;;6.68;6.03;;;29.80;99.90;;;;;;4955053;29;20583;-39
2021/06/17 09:08:01;;;;;;;6.50;5.93;;;30.00;99.90;;;;;;4938740;29;20223;-38
2021/06/17 09:10:29;;;;;;;7.40;6.70;;;30.10;99.90;;;;;;4938707;29;20697;-38
2021/06/17 09:12:58;;;;;;;6.45;5.75;;;30.20;99.90;;;;;;4939491;29;20227;-38
2021/06/17 09:15:32;;;;;;;7.70;6.90;;;30.50;99.90;;;;;;4938932;29;20233;-38
2021/06/17 09:18:15;;;;;;;7.40;6.55;;;30.60;99.90;;;;;;4942365;29;20195;-38
2021/06/17 09:20:47;;;;;;;9.90;5.65;;;30.60;99.90;;;;;;4939918;29;20318;-38
2021/06/17 09:23:26;;;;;;;11.30;5.88;;;30.80;99.90;;;;;;4935676;29;20282;-38
2021/06/17 09:25:54;;;;;;;5.65;5.22;;;30.60;99.90;;;;;;4935847;29;20248;-38
2021/06/17 09:28:21;;;;;;;6.28;5.53;;;30.30;99.90;;;;;;4939492;28;20373;-37
2021/06/17 09:30:48;;;;;;;6.13;5.38;;;30.40;99.90;;;;;;4934874;28;20258;-38
2021/06/17 09:33:17;;;;;;;6.55;5.95;;;30.70;99.90;;;;;;4943225;29;20227;-37
2021/06/17 09:35:53;;;;;;;7.00;5.63;;;31.10;99.90;;;;;;4934951;29;20211;-40
2021/06/17 09:38:20;;;;;;;5.93;5.43;;;31.20;99.90;;;;;;4933234;29;20278;-40
2021/06/17 09:40:50;;;;;;;7.35;5.68;;;31.40;99.90;;;;;;4935687;29;20725;-37
2021/06/17 09:43:20;;;;;;;7.25;5.47;;;31.50;99.90;;;;;;4942649;29;20286;-37
2021/06/17 09:46:06;;;;;;;10.30;5.85;;;31.50;99.90;;;;;;4933958;29;20267;-37
2021/06/17 09:48:40;;;;;;;6.25;5.20;;;31.30;99.90;;;;;;4931355;29;20219;-39
2021/06/17 09:51:37;;;;;;;6.00;4.95;;;31.20;99.90;;;;;;4934400;29;20239;-39
2021/06/17 09:54:14;;;;;;;5.65;5.05;;;31.20;99.90;;;;;;4935740;29;20206;-38
2021/06/17 09:56:42;;;;;;;7.07;5.45;;;31.50;99.90;;;;;;4930913;29;20728;-40
2021/06/17 09:59:10;;;;;;;5.78;5.28;;;31.70;99.90;;;;;;4932973;29;20226;-37
2021/06/17 10:01:42;;;;;;;5.78;5.28;;;31.60;99.90;;;;;;4936096;29;20230;-38
2021/06/17 10:04:13;;;;;;;5.20;4.80;;;31.70;99.90;;;;;;4932555;29;20684;-40
2021/06/17 10:06:41;;;;;;;6.38;5.75;;;31.90;99.90;;;;;;4932702;29;20203;-39
2021/06/17 10:09:09;;;;;;;5.03;4.45;;;32.20;99.90;;;;;;4933054;29;20313;-39
2021/06/17 10:11:36;;;;;;;6.15;4.57;;;32.10;99.90;;;;;;4933131;29;20202;-38
2021/06/17 10:21:46;;;;;;;5.38;4.88;;;32.40;99.90;;;;;;4931089;29;20223;-39
2021/06/17 10:28:14;;;;;;;6.30;5.72;;;32.70;99.90;;;;;;4919870;29;20236;-41
2021/06/17 10:30:43;;;;;;;5.50;5.00;;;32.90;99.90;;;;;;4931004;28;20701;-38
2021/06/17 10:33:29;;;;;;;4.57;4.18;;;32.90;99.90;;;;;;4930541;29;20192;-39
2021/06/17 10:36:25;;;;;;;5.55;5.10;;;33.10;99.90;;;;;;4933121;29;20207;-39
2021/06/17 10:39:17;;;;;;;5.90;5.30;;;33.00;99.90;;;;;;4931380;29;20547;-40
2021/06/17 10:42:10;;;;;;;12.18;5.30;;;33.10;99.90;;;;;;4927625;29;20637;-38
2021/06/17 10:44:37;;;;;;;6.85;4.80;;;33.00;99.90;;;;;;4938928;29;20214;-38
2021/06/17 10:47:05;;;;;;;5.63;5.15;;;33.00;99.90;;;;;;4943965;28;20195;-40
2021/06/17 10:50:03;;;;;;;6.63;4.85;;;33.20;99.90;;;;;;4954250;28;20230;-40
2021/06/17 10:52:33;;;;;;;5.15;4.65;;;33.30;99.90;;;;;;4955141;28;20323;-38
2021/06/17 10:55:04;;;;;;;7.28;4.82;;;33.30;99.90;;;;;;4955079;29;20203;-39
2021/06/17 10:57:54;;;;;;;6.40;5.07;;;33.20;99.90;;;;;;4947958;28;20202;-39
2021/06/17 11:00:48;;;;;;;8.43;4.93;;;33.30;99.90;;;;;;4946942;29;20310;-39
2021/06/17 11:03:38;;;;;;;6.80;5.82;;;33.50;99.90;;;;;;4921170;29;20206;-39
2021/06/17 11:06:06;;;;;;;8.65;4.55;;;33.70;99.90;;;;;;4948945;28;20626;-39
2021/06/17 11:08:34;;;;;;;5.30;4.80;;;33.70;99.90;;;;;;4940251;29;20227;-38
2021/06/17 11:11:04;;;;;;;4.78;4.28;;;33.80;99.90;;;;;;4941045;29;20315;-41
2021/06/17 11:13:33;;;;;;;5.25;4.65;;;34.10;99.90;;;;;;4954660;29;20250;-39
2021/06/17 11:16:02;;;;;;;4.20;3.90;;;34.20;99.90;;;;;;4955583;29;20206;-38
2021/06/17 11:18:56;;;;;;;5.05;4.60;;;34.20;99.90;;;;;;4939269;29;20274;-41
2021/06/17 11:21:45;;;;;;;4.97;4.55;;;34.10;99.90;;;;;;4930782;29;20218;-39
2021/06/17 11:24:33;;;;;;;4.10;3.80;;;34.40;99.90;;;;;;4931969;29;20414;-38
2021/06/17 11:27:02;;;;;;;4.20;3.80;;;34.50;99.90;;;;;;4937601;29;20673;-39
2021/06/17 11:29:56;;;;;;;4.93;4.43;;;34.50;99.90;;;;;;4942377;29;20317;-40
2021/06/17 11:32:32;;;;;;;4.68;4.28;;;34.70;99.90;;;;;;4937691;29;20273;-38
2021/06/17 11:35:00;;;;;;;4.88;4.00;;;34.90;99.90;;;;;;4938000;29;20211;-38
2021/06/17 11:37:33;;;;;;;6.00;4.00;;;35.00;99.90;;;;;;4961170;28;20298;-38
2021/06/17 11:40:01;;;;;;;4.03;3.58;;;35.00;99.90;;;;;;4947240;28;20234;-39
2021/06/17 11:42:34;;;;;;;5.60;3.05;;;35.10;99.90;;;;;;4943279;28;20219;-38
2021/06/17 11:45:05;;;;;;;4.35;3.47;;;35.10;99.90;;;;;;4943965;29;20662;-38
2021/06/17 11:47:32;;;;;;;3.65;3.10;;;35.20;99.90;;;;;;4933838;29;20208;-40
2021/06/17 11:50:08;;;;;;;4.22;3.20;;;35.00;99.90;;;;;;4941934;28;20306;-39
2021/06/17 11:52:40;;;;;;;4.38;3.13;;;35.10;99.90;;;;;;4921892;29;20231;-39
2021/06/17 11:55:09;;;;;;;4.60;3.10;;;35.30;99.90;;;;;;4916466;29;20208;-39
2021/06/17 11:57:40;;;;;;;4.50;3.50;;;35.30;99.90;;;;;;4916588;29;20204;-41
2021/06/17 12:00:10;;;;;;;3.60;2.85;;;35.50;99.90;;;;;;4930336;29;20228;-41
2021/06/17 12:02:39;;;;;;;2.42;2.22;;;35.50;99.90;;;;;;4939490;29;20491;-39
2021/06/17 12:05:09;;;;;;;2.55;2.38;;;35.50;99.90;;;;;;4940975;28;20584;-39
2021/06/17 12:07:38;;;;;;;2.80;2.45;;;35.50;99.90;;;;;;4935526;29;20211;-38
2021/06/17 12:10:09;;;;;;;4.20;3.30;;;35.60;99.90;;;;;;4935818;28;20255;-40
2021/06/17 12:12:38;;;;;;;4.95;3.17;;;35.60;99.90;;;;;;4934627;29;20199;-39
2021/06/17 12:15:07;;;;;;;5.03;3.53;;;35.70;99.90;;;;;;4920631;29;20211;-38
2021/06/17 12:17:36;;;;;;;4.43;3.20;;;34.90;99.90;;;;;;4935037;29;20262;-40
2021/06/17 12:20:11;;;;;;;3.75;3.33;;;35.00;99.90;;;;;;4935031;29;20223;-39
2021/06/17 12:22:39;;;;;;;3.88;3.50;;;34.80;99.90;;;;;;4935136;29;20333;-42
2021/06/17 12:25:09;;;;;;;3.15;2.85;;;34.80;99.90;;;;;;4938568;29;20219;-41
2021/06/17 12:27:41;;;;;;;3.97;2.75;;;35.20;99.90;;;;;;4942254;28;20206;-40
2021/06/17 12:30:29;;;;;;;5.60;3.40;;;35.50;99.90;;;;;;4937319;29;20219;-39
2021/06/17 12:33:01;;;;;;;4.30;3.33;;;35.80;99.90;;;;;;4947580;28;20195;-38
2021/06/17 12:35:37;;;;;;;6.47;4.05;;;35.40;99.90;;;;;;4947327;28;20224;-39
2021/06/17 12:38:04;;;;;;;3.45;3.15;;;35.70;99.90;;;;;;4935402;29;20203;-40
2021/06/17 12:40:33;;;;;;;3.72;3.42;;;35.10;99.90;;;;;;4936014;29;20597;-41
2021/06/17 12:43:11;;;;;;;3.75;3.45;;;34.70;99.90;;;;;;4943083;29;20320;-39
2021/06/17 12:45:42;;;;;;;4.40;3.63;;;35.20;99.90;;;;;;4934512;29;20625;-41
2021/06/17 12:48:21;;;;;;;16.58;15.05;;;35.40;99.90;;;;;;4943583;28;20262;-39
2021/06/17 12:53:47;;;;;;;4.13;3.35;;;36.00;99.90;;;;;;4953558;29;20198;-39
2021/06/17 12:56:15;;;;;;;3.25;2.95;;;36.40;99.90;;;;;;4939538;29;20219;-41
2021/06/17 12:58:52;;;;;;;4.15;3.03;;;36.40;99.90;;;;;;4934440;29;20298;-39
2021/06/17 13:01:22;;;;;;;3.38;3.08;;;35.80;99.90;;;;;;4931860;29;20200;-38
2021/06/17 13:03:50;;;;;;;4.50;2.78;;;36.20;99.90;;;;;;4927783;29;20255;-38
2021/06/17 13:06:36;;;;;;;4.85;3.22;;;36.30;99.90;;;;;;4945309;29;20271;-39
2021/06/17 13:09:03;;;;;;;4.03;3.10;;;36.30;99.90;;;;;;4928821;29;20311;-39